sensor_id;sensor_type;location;lat;lon;timestamp;temperature;humidity
9977;DHT22;5029;47.378;11.776;2022-12-07T00:01:49;-0.80;99.90
9977;DHT22;5029;47.378;11.776;2022-12-07T00:06:54;-0.90;99.90
9977;DHT22;5029;47.378;11.776;2022-12-07T00:11:58;-1.00;99.90
9977;DHT22;5029;47.378;11.776;2022-12-07T00:17:01;-0.90;99.90
9977;DHT22;5029;47.378;11.776;2022-12-07T00:22:06;-0.90;99.90
9977;DHT22;5029;47.378;11.776;2022-12-07T00:27:10;-1.00;99.90
9977;DHT22;5029;47.378;11.776;2022-12-07T00:32:13;-1.10;99.90
9977;DHT22;5029;47.378;11.776;2022-12-07T00:37:18;-0.90;99.90
9977;DHT22;5029;47.378;11.776;2022-12-07T00:42:22;-0.80;99.90
9977;DHT22;5029;47.378;11.776;2022-12-07T00:47:25;-0.90;99.90
9977;DHT22;5029;47.378;11.776;2022-12-07T00:52:30;-0.80;99.90
9977;DHT22;5029;47.378;11.776;2022-12-07T00:57:34;-0.80;99.90
9977;DHT22;5029;47.378;11.776;2022-12-07T01:02:37;-0.80;99.90
9977;DHT22;5029;47.378;11.776;2022-12-07T01:07:42;-0.80;99.90
9977;DHT22;5029;47.378;11.776;2022-12-07T01:12:46;-0.80;99.90
9977;DHT22;5029;47.378;11.776;2022-12-07T01:17:49;-1.20;99.90
9977;DHT22;5029;47.378;11.776;2022-12-07T01:22:54;-1.00;99.90
9977;DHT22;5029;47.378;11.776;2022-12-07T01:27:58;-1.20;99.90
9977;DHT22;5029;47.378;11.776;2022-12-07T01:33:01;-1.00;99.90
9977;DHT22;5029;47.378;11.776;2022-12-07T01:38:06;-1.10;99.90
9977;DHT22;5029;47.378;11.776;2022-12-07T01:43:15;-1.00;99.90
9977;DHT22;5029;47.378;11.776;2022-12-07T01:48:23;-1.20;99.90
9977;DHT22;5029;47.378;11.776;2022-12-07T01:53:30;-1.20;99.90
9977;DHT22;5029;47.378;11.776;2022-12-07T01:58:35;-1.30;99.90
9977;DHT22;5029;47.378;11.776;2022-12-07T02:03:40;-1.10;99.90
9977;DHT22;5029;47.378;11.776;2022-12-07T02:08:46;-1.40;99.90
9977;DHT22;5029;47.378;11.776;2022-12-07T02:13:51;-1.10;99.90
9977;DHT22;5029;47.378;11.776;2022-12-07T02:19:04;-1.40;99.90
9977;DHT22;5029;47.378;11.776;2022-12-07T02:24:24;-1.40;99.90
9977;DHT22;5029;47.378;11.776;2022-12-07T02:29:35;-1.10;99.90
9977;DHT22;5029;47.378;11.776;2022-12-07T02:34:47;-1.10;99.90
9977;DHT22;5029;47.378;11.776;2022-12-07T02:39:54;-1.10;99.90
9977;DHT22;5029;47.378;11.776;2022-12-07T02:45:02;-1.10;99.90
9977;DHT22;5029;47.378;11.776;2022-12-07T02:50:07;-1.40;99.90
9977;DHT22;5029;47.378;11.776;2022-12-07T02:55:12;-1.20;99.90
9977;DHT22;5029;47.378;11.776;2022-12-07T03:00:18;-1.40;99.90
9977;DHT22;5029;47.378;11.776;2022-12-07T03:05:42;-1.40;99.90
9977;DHT22;5029;47.378;11.776;2022-12-07T03:10:54;-1.40;99.90
9977;DHT22;5029;47.378;11.776;2022-12-07T03:16:06;-1.40;99.90
9977;DHT22;5029;47.378;11.776;2022-12-07T03:21:15;-1.40;99.90
9977;DHT22;5029;47.378;11.776;2022-12-07T03:26:21;-1.40;99.90
9977;DHT22;5029;47.378;11.776;2022-12-07T03:31:31;-1.30;99.90
9977;DHT22;5029;47.378;11.776;2022-12-07T03:36:39;-1.20;99.90
9977;DHT22;5029;47.378;11.776;2022-12-07T03:41:43;-1.30;99.90
9977;DHT22;5029;47.378;11.776;2022-12-07T03:46:52;-1.50;99.90
9977;DHT22;5029;47.378;11.776;2022-12-07T03:52:01;-1.40;99.90
9977;DHT22;5029;47.378;11.776;2022-12-07T03:57:06;-1.40;99.90
9977;DHT22;5029;47.378;11.776;2022-12-07T04:02:13;-1.50;99.90
9977;DHT22;5029;47.378;11.776;2022-12-07T04:07:17;-1.30;99.90
9977;DHT22;5029;47.378;11.776;2022-12-07T04:12:20;-1.20;99.90
9977;DHT22;5029;47.378;11.776;2022-12-07T04:17:25;-1.50;99.90
9977;DHT22;5029;47.378;11.776;2022-12-07T04:22:28;-1.40;99.90
9977;DHT22;5029;47.378;11.776;2022-12-07T04:27:32;-1.20;99.90
9977;DHT22;5029;47.378;11.776;2022-12-07T04:32:37;-1.10;99.90
9977;DHT22;5029;47.378;11.776;2022-12-07T04:37:41;-1.20;99.90
9977;DHT22;5029;47.378;11.776;2022-12-07T04:42:44;-1.00;99.90
9977;DHT22;5029;47.378;11.776;2022-12-07T04:47:49;-1.00;99.90
9977;DHT22;5029;47.378;11.776;2022-12-07T04:52:53;-1.00;99.90
9977;DHT22;5029;47.378;11.776;2022-12-07T04:57:56;-1.20;99.90
9977;DHT22;5029;47.378;11.776;2022-12-07T05:03:01;-1.30;99.90
9977;DHT22;5029;47.378;11.776;2022-12-07T05:08:05;-1.20;99.90
9977;DHT22;5029;47.378;11.776;2022-12-07T05:13:08;-1.20;99.90
9977;DHT22;5029;47.378;11.776;2022-12-07T05:18:13;-1.00;99.90
9977;DHT22;5029;47.378;11.776;2022-12-07T05:23:17;-0.90;99.90
9977;DHT22;5029;47.378;11.776;2022-12-07T05:28:20;-0.90;99.90
9977;DHT22;5029;47.378;11.776;2022-12-07T05:33:25;-0.90;99.90
9977;DHT22;5029;47.378;11.776;2022-12-07T05:38:29;-1.00;99.90
9977;DHT22;5029;47.378;11.776;2022-12-07T05:43:34;-1.00;99.90
9977;DHT22;5029;47.378;11.776;2022-12-07T05:48:38;-1.00;99.90
9977;DHT22;5029;47.378;11.776;2022-12-07T05:53:42;-1.00;99.90
9977;DHT22;5029;47.378;11.776;2022-12-07T05:58:45;-1.10;99.90
9977;DHT22;5029;47.378;11.776;2022-12-07T06:04:08;-1.10;99.90
9977;DHT22;5029;47.378;11.776;2022-12-07T06:09:12;-1.10;99.90
9977;DHT22;5029;47.378;11.776;2022-12-07T06:14:15;-1.20;99.90
9977;DHT22;5029;47.378;11.776;2022-12-07T06:19:20;-1.20;99.90
9977;DHT22;5029;47.378;11.776;2022-12-07T06:24:24;-1.00;99.90
9977;DHT22;5029;47.378;11.776;2022-12-07T06:29:28;-1.20;99.90
9977;DHT22;5029;47.378;11.776;2022-12-07T06:34:33;-1.20;99.90
9977;DHT22;5029;47.378;11.776;2022-12-07T06:39:36;-1.40;99.90
9977;DHT22;5029;47.378;11.776;2022-12-07T06:44:40;-1.20;99.90
9977;DHT22;5029;47.378;11.776;2022-12-07T06:49:45;-1.30;99.90
9977;DHT22;5029;47.378;11.776;2022-12-07T06:54:49;-1.10;99.90
9977;DHT22;5029;47.378;11.776;2022-12-07T06:59:52;-1.20;99.90
9977;DHT22;5029;47.378;11.776;2022-12-07T07:04:57;-1.10;99.90
9977;DHT22;5029;47.378;11.776;2022-12-07T07:10:01;-1.20;99.90
9977;DHT22;5029;47.378;11.776;2022-12-07T07:15:06;-1.40;99.90
9977;DHT22;5029;47.378;11.776;2022-12-07T07:20:12;-1.30;99.90
9977;DHT22;5029;47.378;11.776;2022-12-07T07:25:16;-1.30;99.90
9977;DHT22;5029;47.378;11.776;2022-12-07T07:30:20;-1.10;99.90
9977;DHT22;5029;47.378;11.776;2022-12-07T07:35:25;-1.10;99.90
9977;DHT22;5029;47.378;11.776;2022-12-07T07:40:29;-1.00;99.90
9977;DHT22;5029;47.378;11.776;2022-12-07T07:45:33;-1.00;99.90
9977;DHT22;5029;47.378;11.776;2022-12-07T07:50:38;-1.00;99.90
9977;DHT22;5029;47.378;11.776;2022-12-07T07:55:41;-0.90;99.90
9977;DHT22;5029;47.378;11.776;2022-12-07T08:00:52;-0.80;99.90
9977;DHT22;5029;47.378;11.776;2022-12-07T08:05:57;-1.10;99.90
9977;DHT22;5029;47.378;11.776;2022-12-07T08:11:02;-1.20;99.90
9977;DHT22;5029;47.378;11.776;2022-12-07T08:16:09;-1.10;99.90
9977;DHT22;5029;47.378;11.776;2022-12-07T08:21:15;-1.20;99.90
9977;DHT22;5029;47.378;11.776;2022-12-07T08:26:18;-1.10;99.90
9977;DHT22;5029;47.378;11.776;2022-12-07T08:31:22;-1.10;99.90
9977;DHT22;5029;47.378;11.776;2022-12-07T08:36:27;-0.90;99.90
9977;DHT22;5029;47.378;11.776;2022-12-07T08:41:30;-0.90;99.90
9977;DHT22;5029;47.378;11.776;2022-12-07T08:46:36;-0.80;99.90
9977;DHT22;5029;47.378;11.776;2022-12-07T08:51:42;-0.80;99.90
9977;DHT22;5029;47.378;11.776;2022-12-07T08:56:47;-0.80;99.90
9977;DHT22;5029;47.378;11.776;2022-12-07T09:02:00;-0.70;99.90
9977;DHT22;5029;47.378;11.776;2022-12-07T09:07:05;-1.00;99.90
9977;DHT22;5029;47.378;11.776;2022-12-07T09:12:08;-1.20;99.90
9977;DHT22;5029;47.378;11.776;2022-12-07T09:17:13;-1.00;99.90
9977;DHT22;5029;47.378;11.776;2022-12-07T09:22:17;-1.00;99.90
9977;DHT22;5029;47.378;11.776;2022-12-07T09:27:21;-0.90;99.90
9977;DHT22;5029;47.378;11.776;2022-12-07T09:32:24;-0.90;99.90
9977;DHT22;5029;47.378;11.776;2022-12-07T09:37:29;-0.90;99.90
9977;DHT22;5029;47.378;11.776;2022-12-07T09:42:38;-0.80;99.90
9977;DHT22;5029;47.378;11.776;2022-12-07T09:47:42;-0.90;99.90
9977;DHT22;5029;47.378;11.776;2022-12-07T09:52:48;-0.80;99.90
9977;DHT22;5029;47.378;11.776;2022-12-07T09:57:53;-0.80;99.90
9977;DHT22;5029;47.378;11.776;2022-12-07T10:02:58;-0.50;99.90
9977;DHT22;5029;47.378;11.776;2022-12-07T10:08:04;-0.40;99.90
9977;DHT22;5029;47.378;11.776;2022-12-07T10:13:08;-0.60;99.90
9977;DHT22;5029;47.378;11.776;2022-12-07T10:18:21;-0.60;99.90
9977;DHT22;5029;47.378;11.776;2022-12-07T10:23:29;-0.60;99.90
9977;DHT22;5029;47.378;11.776;2022-12-07T10:28:35;-0.40;99.90
9977;DHT22;5029;47.378;11.776;2022-12-07T10:33:50;-0.40;99.90
9977;DHT22;5029;47.378;11.776;2022-12-07T10:39:01;-0.40;99.90
9977;DHT22;5029;47.378;11.776;2022-12-07T10:44:07;-0.50;99.90
9977;DHT22;5029;47.378;11.776;2022-12-07T10:49:53;-0.40;99.90
9977;DHT22;5029;47.378;11.776;2022-12-07T10:55:11;-0.30;99.90
9977;DHT22;5029;47.378;11.776;2022-12-07T11:00:20;-0.20;99.90
9977;DHT22;5029;47.378;11.776;2022-12-07T11:05:27;-0.20;99.90
9977;DHT22;5029;47.378;11.776;2022-12-07T11:10:40;0.00;99.90
9977;DHT22;5029;47.378;11.776;2022-12-07T11:16:00;0.00;99.90
9977;DHT22;5029;47.378;11.776;2022-12-07T11:21:09;0.50;99.90
9977;DHT22;5029;47.378;11.776;2022-12-07T11:26:23;0.50;99.90
9977;DHT22;5029;47.378;11.776;2022-12-07T11:31:32;0.80;99.90
9977;DHT22;5029;47.378;11.776;2022-12-07T11:36:40;0.90;99.90
9977;DHT22;5029;47.378;11.776;2022-12-07T11:41:48;1.00;99.90
9977;DHT22;5029;47.378;11.776;2022-12-07T11:46:57;1.00;99.90
9977;DHT22;5029;47.378;11.776;2022-12-07T11:52:03;1.10;99.90
9977;DHT22;5029;47.378;11.776;2022-12-07T11:57:15;1.10;99.90
9977;DHT22;5029;47.378;11.776;2022-12-07T12:02:24;1.20;99.90
9977;DHT22;5029;47.378;11.776;2022-12-07T12:07:31;1.10;99.90
9977;DHT22;5029;47.378;11.776;2022-12-07T12:13:15;1.10;99.90
9977;DHT22;5029;47.378;11.776;2022-12-07T12:19:00;1.00;99.90
9977;DHT22;5029;47.378;11.776;2022-12-07T12:24:12;1.00;99.90
9977;DHT22;5029;47.378;11.776;2022-12-07T12:29:26;1.00;99.90
9977;DHT22;5029;47.378;11.776;2022-12-07T12:34:33;1.20;99.90
9977;DHT22;5029;47.378;11.776;2022-12-07T12:45:34;1.30;99.90
9977;DHT22;5029;47.378;11.776;2022-12-07T12:50:38;1.40;99.90
9977;DHT22;5029;47.378;11.776;2022-12-07T13:01:46;1.50;99.90
9977;DHT22;5029;47.378;11.776;2022-12-07T13:06:51;1.30;99.90
9977;DHT22;5029;47.378;11.776;2022-12-07T13:12:01;1.30;99.90
9977;DHT22;5029;47.378;11.776;2022-12-07T13:17:08;1.30;99.90
9977;DHT22;5029;47.378;11.776;2022-12-07T13:28:02;1.50;99.90
9977;DHT22;5029;47.378;11.776;2022-12-07T13:33:09;1.50;99.90
9977;DHT22;5029;47.378;11.776;2022-12-07T13:38:22;1.50;99.90
9977;DHT22;5029;47.378;11.776;2022-12-07T13:43:26;1.50;99.90
9977;DHT22;5029;47.378;11.776;2022-12-07T13:48:33;1.50;99.90
9977;DHT22;5029;47.378;11.776;2022-12-07T13:53:46;1.40;99.90
9977;DHT22;5029;47.378;11.776;2022-12-07T13:58:50;1.30;99.90
9977;DHT22;5029;47.378;11.776;2022-12-07T14:03:55;1.20;99.90
9977;DHT22;5029;47.378;11.776;2022-12-07T14:09:09;1.20;99.90
9977;DHT22;5029;47.378;11.776;2022-12-07T14:14:16;1.20;99.90
9977;DHT22;5029;47.378;11.776;2022-12-07T14:19:50;1.20;99.90
9977;DHT22;5029;47.378;11.776;2022-12-07T14:25:17;1.10;99.90
9977;DHT22;5029;47.378;11.776;2022-12-07T14:30:22;1.20;99.90
9977;DHT22;5029;47.378;11.776;2022-12-07T14:35:27;1.30;99.90
9977;DHT22;5029;47.378;11.776;2022-12-07T14:40:31;1.20;99.90
9977;DHT22;5029;47.378;11.776;2022-12-07T14:45:35;1.10;99.90
9977;DHT22;5029;47.378;11.776;2022-12-07T14:50:43;1.00;99.90
9977;DHT22;5029;47.378;11.776;2022-12-07T14:56:07;1.00;99.90
9977;DHT22;5029;47.378;11.776;2022-12-07T15:01:11;0.80;99.90
9977;DHT22;5029;47.378;11.776;2022-12-07T15:06:17;0.80;99.90
9977;DHT22;5029;47.378;11.776;2022-12-07T15:11:21;0.60;99.90
9977;DHT22;5029;47.378;11.776;2022-12-07T15:16:25;0.60;99.90
9977;DHT22;5029;47.378;11.776;2022-12-07T15:21:43;0.50;99.90
9977;DHT22;5029;47.378;11.776;2022-12-07T15:26:47;0.40;99.90
9977;DHT22;5029;47.378;11.776;2022-12-07T15:31:51;0.40;99.90
9977;DHT22;5029;47.378;11.776;2022-12-07T15:36:59;0.50;99.90
9977;DHT22;5029;47.378;11.776;2022-12-07T15:42:03;0.50;99.90
9977;DHT22;5029;47.378;11.776;2022-12-07T15:47:07;0.50;99.90
9977;DHT22;5029;47.378;11.776;2022-12-07T15:52:12;0.50;99.90
9977;DHT22;5029;47.378;11.776;2022-12-07T15:57:16;0.40;99.90
9977;DHT22;5029;47.378;11.776;2022-12-07T16:02:26;0.30;99.90
9977;DHT22;5029;47.378;11.776;2022-12-07T16:07:31;0.20;99.90
9977;DHT22;5029;47.378;11.776;2022-12-07T16:12:34;0.20;99.90
9977;DHT22;5029;47.378;11.776;2022-12-07T16:17:38;0.30;99.90
9977;DHT22;5029;47.378;11.776;2022-12-07T16:22:42;0.20;99.90
9977;DHT22;5029;47.378;11.776;2022-12-07T16:27:46;0.20;99.90
9977;DHT22;5029;47.378;11.776;2022-12-07T16:32:49;0.10;99.90
9977;DHT22;5029;47.378;11.776;2022-12-07T16:37:54;0.20;99.90
9977;DHT22;5029;47.378;11.776;2022-12-07T16:42:58;0.30;99.90
9977;DHT22;5029;47.378;11.776;2022-12-07T16:48:02;0.40;99.90
9977;DHT22;5029;47.378;11.776;2022-12-07T16:53:08;0.20;99.90
9977;DHT22;5029;47.378;11.776;2022-12-07T16:58:12;0.20;99.90
9977;DHT22;5029;47.378;11.776;2022-12-07T17:03:16;0.30;99.90
9977;DHT22;5029;47.378;11.776;2022-12-07T17:08:23;0.30;99.90
9977;DHT22;5029;47.378;11.776;2022-12-07T17:13:27;0.20;99.90
9977;DHT22;5029;47.378;11.776;2022-12-07T17:18:48;0.20;99.90
9977;DHT22;5029;47.378;11.776;2022-12-07T17:23:53;0.20;99.90
9977;DHT22;5029;47.378;11.776;2022-12-07T17:28:57;0.10;99.90
9977;DHT22;5029;47.378;11.776;2022-12-07T17:34:01;0.10;99.90
9977;DHT22;5029;47.378;11.776;2022-12-07T17:39:08;0.20;99.90
9977;DHT22;5029;47.378;11.776;2022-12-07T17:44:13;0.30;99.90
9977;DHT22;5029;47.378;11.776;2022-12-07T17:49:18;0.30;99.90
9977;DHT22;5029;47.378;11.776;2022-12-07T17:54:23;0.20;99.90
9977;DHT22;5029;47.378;11.776;2022-12-07T17:59:28;0.00;99.90
9977;DHT22;5029;47.378;11.776;2022-12-07T18:04:32;0.20;99.90
9977;DHT22;5029;47.378;11.776;2022-12-07T18:09:37;0.10;99.90
9977;DHT22;5029;47.378;11.776;2022-12-07T18:14:41;0.10;99.90
9977;DHT22;5029;47.378;11.776;2022-12-07T18:19:45;-0.20;99.90
9977;DHT22;5029;47.378;11.776;2022-12-07T18:24:51;-0.40;99.90
9977;DHT22;5029;47.378;11.776;2022-12-07T18:29:56;-0.40;99.90
9977;DHT22;5029;47.378;11.776;2022-12-07T18:35:01;-0.20;99.90
9977;DHT22;5029;47.378;11.776;2022-12-07T18:40:10;0.00;99.90
9977;DHT22;5029;47.378;11.776;2022-12-07T18:45:14;0.00;99.90
9977;DHT22;5029;47.378;11.776;2022-12-07T18:50:19;0.00;99.90
9977;DHT22;5029;47.378;11.776;2022-12-07T18:55:25;-0.10;99.90
9977;DHT22;5029;47.378;11.776;2022-12-07T19:00:32;-0.10;99.90
9977;DHT22;5029;47.378;11.776;2022-12-07T19:05:37;0.00;99.90
9977;DHT22;5029;47.378;11.776;2022-12-07T19:10:44;-0.10;99.90
9977;DHT22;5029;47.378;11.776;2022-12-07T19:15:50;-0.10;99.90
9977;DHT22;5029;47.378;11.776;2022-12-07T19:20:56;0.00;99.90
9977;DHT22;5029;47.378;11.776;2022-12-07T19:26:02;-0.10;99.90
9977;DHT22;5029;47.378;11.776;2022-12-07T19:31:07;-0.40;99.90
9977;DHT22;5029;47.378;11.776;2022-12-07T19:36:11;-0.30;99.90
9977;DHT22;5029;47.378;11.776;2022-12-07T19:41:17;-0.20;99.90
9977;DHT22;5029;47.378;11.776;2022-12-07T19:46:40;-0.10;99.90
9977;DHT22;5029;47.378;11.776;2022-12-07T19:51:49;0.00;99.90
9977;DHT22;5029;47.378;11.776;2022-12-07T19:56:55;-0.10;99.90
9977;DHT22;5029;47.378;11.776;2022-12-07T20:02:00;-0.20;99.90
9977;DHT22;5029;47.378;11.776;2022-12-07T20:07:04;-0.10;99.90
9977;DHT22;5029;47.378;11.776;2022-12-07T20:12:12;-0.10;99.90
9977;DHT22;5029;47.378;11.776;2022-12-07T20:17:34;-0.40;99.90
9977;DHT22;5029;47.378;11.776;2022-12-07T20:22:38;-0.30;99.90
9977;DHT22;5029;47.378;11.776;2022-12-07T20:27:45;-0.30;99.90
9977;DHT22;5029;47.378;11.776;2022-12-07T20:32:51;-0.30;99.90
9977;DHT22;5029;47.378;11.776;2022-12-07T20:37:56;-0.30;99.90
9977;DHT22;5029;47.378;11.776;2022-12-07T20:43:04;-0.30;99.90
9977;DHT22;5029;47.378;11.776;2022-12-07T20:48:10;-0.30;99.90
9977;DHT22;5029;47.378;11.776;2022-12-07T20:53:15;-0.30;99.90
9977;DHT22;5029;47.378;11.776;2022-12-07T20:58:20;-0.50;99.90
9977;DHT22;5029;47.378;11.776;2022-12-07T21:03:29;-0.60;99.90
9977;DHT22;5029;47.378;11.776;2022-12-07T21:08:33;-0.40;99.90
9977;DHT22;5029;47.378;11.776;2022-12-07T21:13:40;-0.40;99.90
9977;DHT22;5029;47.378;11.776;2022-12-07T21:18:47;-0.40;99.90
9977;DHT22;5029;47.378;11.776;2022-12-07T21:23:53;-0.30;99.90
9977;DHT22;5029;47.378;11.776;2022-12-07T21:29:05;-0.30;99.90
9977;DHT22;5029;47.378;11.776;2022-12-07T21:34:09;-0.20;99.90
9977;DHT22;5029;47.378;11.776;2022-12-07T21:39:13;-0.10;99.90
9977;DHT22;5029;47.378;11.776;2022-12-07T21:44:19;-0.30;99.90
9977;DHT22;5029;47.378;11.776;2022-12-07T21:49:23;-0.40;99.90
9977;DHT22;5029;47.378;11.776;2022-12-07T21:54:26;-0.50;99.90
9977;DHT22;5029;47.378;11.776;2022-12-07T21:59:31;-0.30;99.90
9977;DHT22;5029;47.378;11.776;2022-12-07T22:04:35;-0.30;99.90
9977;DHT22;5029;47.378;11.776;2022-12-07T22:09:38;-0.10;99.90
9977;DHT22;5029;47.378;11.776;2022-12-07T22:14:46;-0.50;99.90
9977;DHT22;5029;47.378;11.776;2022-12-07T22:20:07;-0.30;99.90
9977;DHT22;5029;47.378;11.776;2022-12-07T22:25:11;-0.20;99.90
9977;DHT22;5029;47.378;11.776;2022-12-07T22:30:17;-0.30;99.90
9977;DHT22;5029;47.378;11.776;2022-12-07T22:35:20;-0.40;99.90
9977;DHT22;5029;47.378;11.776;2022-12-07T22:40:27;-0.60;99.90
9977;DHT22;5029;47.378;11.776;2022-12-07T22:45:34;-0.40;99.90
9977;DHT22;5029;47.378;11.776;2022-12-07T22:50:40;-0.30;99.90
9977;DHT22;5029;47.378;11.776;2022-12-07T22:55:44;-0.50;99.90
9977;DHT22;5029;47.378;11.776;2022-12-07T23:00:49;-0.70;99.90
9977;DHT22;5029;47.378;11.776;2022-12-07T23:05:52;-0.50;99.90
9977;DHT22;5029;47.378;11.776;2022-12-07T23:10:56;-0.40;99.90
9977;DHT22;5029;47.378;11.776;2022-12-07T23:16:08;-0.50;99.90
9977;DHT22;5029;47.378;11.776;2022-12-07T23:21:12;-0.60;99.90
9977;DHT22;5029;47.378;11.776;2022-12-07T23:26:17;-0.60;99.90
9977;DHT22;5029;47.378;11.776;2022-12-07T23:31:23;-0.80;99.90
9977;DHT22;5029;47.378;11.776;2022-12-07T23:36:40;-1.00;99.90
9977;DHT22;5029;47.378;11.776;2022-12-07T23:41:44;-0.80;99.90
9977;DHT22;5029;47.378;11.776;2022-12-07T23:46:49;-0.70;99.90
9977;DHT22;5029;47.378;11.776;2022-12-07T23:51:52;-0.60;99.90
9977;DHT22;5029;47.378;11.776;2022-12-07T23:56:56;-0.50;99.90
